Time;durP1;ratioP1;P1;durP2;ratioP2;P2;SDS_P1;SDS_P2;PMS_P1;PMS_P2;Temp;Humidity;BMP_temperature;BMP_pressure;BME280_temperature;BME280_humidity;BME280_pressure;Samples;Min_cycle;Max_cycle;Signal;HPM_P1;HPM_P2
2022/08/12 00:44:45;;;;;;;6.60;4.30;;;;;;;13.23;89.18;95726.22;5059693;28;20040;-76
2022/08/12 00:47:12;;;;;;;;;;;;;;;13.23;89.17;95726.22;5053538;28;20049;-76
2022/08/12 00:49:38;;;;;;;11.18;4.45;;;;;;;13.23;89.64;95726.22;5050193;28;19932;-76
2022/08/12 00:52:05;;;;;;;7.07;4.40;;;;;;;13.15;90.08;95719.69;5057136;28;20041;-77
2022/08/12 00:54:35;;;;;;;9.50;4.18;;;;;;;13.11;91.11;95728.44;5069553;28;20040;-76
2022/08/12 00:57:11;;;;;;;6.57;4.55;;;;;;;13.12;90.76;95719.47;5058385;28;20464;-76
2022/08/12 00:59:45;;;;;;;9.40;4.57;;;;;;;13.06;91.28;95715.28;5053961;28;20102;-76
2022/08/12 01:02:33;;;;;;;8.90;4.43;;;;;;;12.96;91.92;95710.91;5057644;28;20036;-76
2022/08/12 01:13:18;;;;;;;7.15;3.90;;;;;;;12.84;92.73;95713.91;5047797;28;20041;-76
2022/08/12 01:15:45;;;;;;;6.53;4.18;;;;;;;12.81;92.84;95706.53;5048908;28;20045;-76
2022/08/12 01:18:13;;;;;;;7.70;4.10;;;;;;;12.76;93.10;95707.38;5055276;28;20137;-76
2022/08/12 01:20:45;;;;;;;8.10;4.10;;;;;;;12.75;93.44;95699.72;5049033;28;20040;-76
2022/08/12 01:23:34;;;;;;;9.38;4.47;;;;;;;12.63;93.74;95708.81;5049691;28;20067;-76
2022/08/12 01:26:03;;;;;;;5.57;3.78;;;;;;;12.67;93.82;95708.25;5052788;28;20064;-76
2022/08/12 01:28:30;;;;;;;7.57;4.50;;;;;;;12.62;93.77;95712.50;5046104;28;20506;-76
2022/08/12 01:31:00;;;;;;;7.32;4.07;;;;;;;12.58;94.42;95706.19;5048641;28;20126;-76
2022/08/12 01:33:30;;;;;;;8.57;4.10;;;;;;;12.50;95.58;95713.91;5052443;28;20060;-76
2022/08/12 01:36:01;;;;;;;5.50;3.95;;;;;;;12.49;95.68;95705.22;5062393;28;20048;-76
2022/08/12 01:38:31;;;;;;;6.45;4.07;;;;;;;12.44;95.66;95716.63;5047724;28;20128;-75
2022/08/12 01:40:58;;;;;;;8.73;4.40;;;;;;;12.45;95.31;95709.47;5053366;28;20048;-76
2022/08/12 01:43:25;;;;;;;5.63;3.75;;;;;;;12.36;96.31;95708.50;5056777;28;20040;-76
2022/08/12 01:46:07;;;;;;;7.40;3.95;;;;;;;12.37;96.97;95710.06;5057571;28;20079;-77
2022/08/12 01:48:48;;;;;;;6.13;4.20;;;;;;;12.38;97.27;95711.66;5047580;28;20056;-76
2022/08/12 01:51:39;;;;;;;6.95;4.10;;;;;;;12.29;97.88;95709.59;5047497;28;20198;-76
2022/08/12 01:54:14;;;;;;;5.70;3.88;;;;;;;12.24;98.01;95707.00;5046065;28;20728;-76
2022/08/12 01:56:51;;;;;;;6.68;4.07;;;;;;;12.20;98.16;95705.97;5050628;28;20076;-76
2022/08/12 01:59:48;;;;;;;6.05;3.88;;;;;;;12.18;98.71;95700.16;5053357;28;20053;-76
2022/08/12 02:02:55;;;;;;;6.68;3.92;;;;;;;12.21;97.82;95702.28;5050301;28;20047;-76
2022/08/12 02:11:55;;;;;;;6.65;4.38;;;;;;;12.08;99.66;95693.13;5045492;28;20040;-76
2022/08/12 02:14:44;;;;;;;9.05;4.43;;;;;;;11.98;100.00;95697.66;5049014;28;20060;-76
2022/08/12 02:17:19;;;;;;;6.53;4.35;;;;;;;12.01;100.00;95697.13;5054221;28;20041;-76
2022/08/12 02:19:53;;;;;;;7.07;4.05;;;;;;;11.96;100.00;95696.06;5048823;28;20043;-76
2022/08/12 02:22:26;;;;;;;7.57;3.95;;;;;;;12.00;100.00;95685.78;5049195;28;20489;-76
2022/08/12 02:24:55;;;;;;;6.38;4.10;;;;;;;11.99;100.00;95688.69;5054558;28;20041;-77
2022/08/12 02:27:26;;;;;;;8.48;4.03;;;;;;;11.95;100.00;95683.97;5050986;28;20049;-76
2022/08/12 02:29:51;;;;;;;9.27;3.95;;;;;;;11.90;100.00;95676.06;5049446;28;20048;-76
2022/08/12 02:32:17;;;;;;;6.88;3.90;;;;;;;11.81;100.00;95685.63;5051459;28;20436;-76
2022/08/12 02:34:43;;;;;;;8.23;4.00;;;;;;;11.79;100.00;95674.53;5055394;28;20041;-76
2022/08/12 02:37:12;;;;;;;7.75;4.47;;;;;;;11.86;100.00;95679.50;5052624;28;20090;-76
2022/08/12 02:39:43;;;;;;;6.80;4.50;;;;;;;11.87;100.00;95675.81;5051734;28;20490;-75
2022/08/12 02:42:10;;;;;;;7.57;4.28;;;;;;;11.83;100.00;95675.56;5044729;28;20051;-76
2022/08/12 02:44:39;;;;;;;6.47;4.00;;;;;;;11.82;100.00;95662.66;5053673;28;20036;-76
2022/08/12 02:47:07;;;;;;;8.00;4.30;;;;;;;11.78;100.00;95667.69;5053432;28;20052;-76
2022/08/12 02:49:38;;;;;;;13.70;4.30;;;;;;;11.69;100.00;95671.97;5040300;28;20045;-76
2022/08/12 02:52:06;;;;;;;7.13;4.53;;;;;;;11.66;100.00;95664.59;5048916;28;20124;-76
2022/08/12 02:54:33;;;;;;;7.25;4.18;;;;;;;11.68;100.00;95673.00;5047113;28;20062;-76
2022/08/12 02:56:59;;;;;;;7.78;4.63;;;;;;;11.68;100.00;95670.38;5049587;28;20049;-76
2022/08/12 02:59:26;;;;;;;7.38;4.60;;;;;;;11.56;100.00;95671.47;5050040;28;20064;-76
2022/08/12 03:02:02;;;;;;;12.60;4.32;;;;;;;11.61;100.00;95679.38;5053861;28;20045;-76
2022/08/12 03:04:33;;;;;;;7.05;4.13;;;;;;;11.52;100.00;95681.00;5041729;28;20521;-76
2022/08/12 03:07:24;;;;;;;6.07;4.25;;;;;;;11.51;100.00;95686.56;5048548;28;20228;-76
2022/08/12 03:10:01;;;;;;;7.53;3.95;;;;;;;11.48;100.00;95685.25;5045366;28;20045;-76
2022/08/12 03:12:29;;;;;;;8.25;4.25;;;;;;;11.45;100.00;95672.59;5050143;28;20048;-76
2022/08/12 03:14:57;;;;;;;7.60;4.40;;;;;;;11.35;100.00;95675.25;5052390;28;20047;-76
2022/08/12 03:17:28;;;;;;;6.88;4.30;;;;;;;11.27;100.00;95669.50;5053778;28;20107;-76
2022/08/12 03:19:56;;;;;;;6.75;4.10;;;;;;;11.31;100.00;95671.63;5049526;28;20064;-76
2022/08/12 03:22:23;;;;;;;5.80;4.03;;;;;;;11.24;100.00;95674.53;5055071;28;20048;-76
2022/08/12 03:24:49;;;;;;;7.53;5.00;;;;;;;11.30;100.00;95675.31;5062558;28;20040;-76
2022/08/12 03:27:15;;;;;;;11.35;4.30;;;;;;;11.23;100.00;95673.75;5056367;28;20049;-76
2022/08/12 03:29:45;;;;;;;11.38;4.38;;;;;;;11.19;100.00;95680.59;5055252;28;20052;-76
2022/08/12 03:32:11;;;;;;;6.95;4.25;;;;;;;11.22;100.00;95677.44;5053894;28;20041;-75
2022/08/12 03:34:36;;;;;;;6.20;4.00;;;;;;;11.12;100.00;95676.66;5052441;28;20037;-76
2022/08/12 03:37:06;;;;;;;7.45;4.28;;;;;;;11.07;100.00;95680.09;5055329;28;20116;-76
2022/08/12 03:42:24;;;;;;;7.28;4.07;;;;;;;11.06;100.00;95686.41;5052521;28;20051;-76
2022/08/12 04:01:57;;;;;;;10.50;4.90;;;;;;;10.68;100.00;95683.34;5052659;28;20060;-76
2022/08/12 04:04:24;;;;;;;8.95;4.30;;;;;;;10.65;100.00;95678.63;5055637;28;20055;-76
2022/08/12 04:06:50;;;;;;;6.93;4.43;;;;;;;10.58;100.00;95676.25;5061281;28;20421;-76
2022/08/12 04:09:20;;;;;;;8.23;4.70;;;;;;;10.57;100.00;95678.09;5052936;28;20044;-76
2022/08/12 04:14:31;;;;;;;6.88;4.47;;;;;;;10.57;100.00;95672.84;5052823;28;20676;-77
2022/08/12 04:16:58;;;;;;;8.05;4.13;;;;;;;10.58;100.00;95669.13;5056869;28;20079;-76
2022/08/12 04:19:24;;;;;;;8.43;4.35;;;;;;;10.53;100.00;95666.53;5047629;28;20045;-76
2022/08/12 04:21:51;;;;;;;8.68;4.40;;;;;;;10.53;100.00;95671.78;5060350;28;20041;-76
2022/08/12 04:24:18;;;;;;;6.70;3.90;;;;;;;10.49;100.00;95673.38;5050414;28;20045;-76
2022/08/12 04:26:44;;;;;;;6.90;4.40;;;;;;;10.57;100.00;95677.28;5054518;28;20095;-76
2022/08/12 04:29:09;;;;;;;6.55;4.38;;;;;;;10.53;100.00;95676.25;5049646;28;20041;-76
2022/08/12 04:31:38;;;;;;;10.02;4.40;;;;;;;10.62;100.00;95679.16;5054936;28;20033;-76
2022/08/12 04:34:06;;;;;;;7.25;4.30;;;;;;;10.58;100.00;95677.03;5052761;28;20128;-76
2022/08/12 04:36:33;;;;;;;7.03;4.35;;;;;;;10.56;100.00;95681.78;5054947;28;20069;-76
2022/08/12 04:39:01;;;;;;;7.30;4.43;;;;;;;10.62;100.00;95679.16;5049498;28;20685;-77
2022/08/12 04:41:28;;;;;;;8.20;4.25;;;;;;;10.70;100.00;95691.75;5055712;28;20037;-76
2022/08/12 04:43:54;;;;;;;6.97;4.30;;;;;;;10.69;100.00;95700.72;5050602;28;20584;-76
2022/08/12 04:46:20;;;;;;;8.55;4.00;;;;;;;10.63;100.00;95691.25;5058238;28;20072;-76
2022/08/12 04:48:45;;;;;;;7.70;4.57;;;;;;;10.62;100.00;95689.69;5054496;28;20048;-76
2022/08/12 04:51:12;;;;;;;6.80;4.43;;;;;;;10.72;100.00;95689.66;5055366;28;20063;-76
2022/08/12 04:53:39;;;;;;;7.63;4.97;;;;;;;10.74;100.00;95682.28;5055030;28;20119;-77
2022/08/12 04:56:06;;;;;;;8.70;4.50;;;;;;;10.80;100.00;95686.47;5059198;28;20040;-77
2022/08/12 04:58:33;;;;;;;10.05;4.30;;;;;;;10.85;100.00;95689.09;5059193;28;20486;-76
2022/08/12 05:00:59;;;;;;;8.98;4.65;;;;;;;10.94;100.00;95692.00;5053067;28;20513;-77
2022/08/12 05:03:25;;;;;;;7.05;4.78;;;;;;;11.05;100.00;95698.03;5055375;28;20044;-76
2022/08/12 05:05:51;;;;;;;9.60;4.40;;;;;;;11.10;100.00;95690.09;5055176;28;20048;-77
2022/08/12 05:08:17;;;;;;;7.63;4.47;;;;;;;11.19;100.00;95693.78;5051092;28;20041;-76
2022/08/12 05:10:47;;;;;;;7.63;4.35;;;;;;;11.27;100.00;95685.31;5055224;28;20076;-76
2022/08/12 05:13:20;;;;;;;10.68;4.70;;;;;;;11.40;100.00;95691.06;5045472;28;20045;-76
2022/08/12 05:15:45;;;;;;;8.32;4.60;;;;;;;11.53;100.00;95693.09;5049553;28;20033;-76
2022/08/12 05:18:12;;;;;;;11.68;5.13;;;;;;;11.58;100.00;95690.47;5053650;28;20041;-76
2022/08/12 05:20:38;;;;;;;6.82;4.80;;;;;;;11.70;100.00;95697.25;5048347;28;20045;-77
2022/08/12 05:23:18;;;;;;;7.82;4.65;;;;;;;11.75;100.00;95705.13;5049351;28;20041;-77
2022/08/12 05:25:46;;;;;;;7.10;4.80;;;;;;;11.82;100.00;95702.22;5050417;28;20045;-77
2022/08/12 05:28:13;;;;;;;9.13;4.43;;;;;;;11.92;100.00;95695.03;5047406;28;20391;-77
2022/08/12 05:30:40;;;;;;;7.55;4.38;;;;;;;12.03;100.00;95706.34;5053324;28;20461;-77
2022/08/12 05:33:05;;;;;;;8.32;4.47;;;;;;;12.07;100.00;95701.31;5050148;28;20037;-77
2022/08/12 05:35:38;;;;;;;6.88;4.40;;;;;;;12.16;100.00;95702.28;5054591;28;20735;-76
2022/08/12 05:41:01;;;;;;;8.30;4.10;;;;;;;12.41;100.00;95711.09;5046989;28;20049;-76
2022/08/12 05:43:27;;;;;;;7.78;4.40;;;;;;;12.47;100.00;95702.88;5058178;28;20434;-76
2022/08/12 05:45:53;;;;;;;10.10;4.70;;;;;;;12.50;100.00;95703.38;5053104;28;20380;-76
2022/08/12 05:48:20;;;;;;;7.47;4.70;;;;;;;12.64;100.00;95699.81;5050313;28;20037;-76
2022/08/12 05:50:46;;;;;;;8.70;5.10;;;;;;;12.67;100.00;95703.78;5051571;28;20044;-76
2022/08/12 05:53:12;;;;;;;8.40;4.90;;;;;;;12.75;100.00;95705.00;5058336;28;20131;-75
2022/08/12 05:55:39;;;;;;;10.20;5.57;;;;;;;12.86;100.00;95706.50;5054967;28;20037;-76
2022/08/12 05:58:06;;;;;;;10.40;5.25;;;;;;;12.96;100.00;95698.47;5050504;28;20500;-76
2022/08/12 06:00:33;;;;;;;11.55;5.50;;;;;;;13.09;100.00;95699.66;5051040;28;20045;-77
2022/08/12 06:03:03;;;;;;;13.18;5.75;;;;;;;13.16;100.00;95707.28;5053721;28;20056;-77
2022/08/12 06:05:36;;;;;;;8.60;5.00;;;;;;;13.28;100.00;95702.38;5053323;28;20082;-77
2022/08/12 06:08:05;;;;;;;7.85;5.10;;;;;;;13.59;100.00;95699.41;5048739;28;20037;-78
2022/08/12 06:10:35;;;;;;;9.07;4.95;;;;;;;13.62;100.00;95706.78;5062216;28;20032;-77
2022/08/12 06:13:03;;;;;;;10.75;5.07;;;;;;;13.69;100.00;95701.91;5049510;28;20095;-77
2022/08/12 06:15:30;;;;;;;8.00;4.93;;;;;;;13.71;100.00;95698.22;5048460;28;20486;-77
2022/08/12 06:18:06;;;;;;;13.02;5.68;;;;;;;13.82;100.00;95705.72;5048044;28;20727;-77
2022/08/12 06:20:32;;;;;;;17.85;6.40;;;;;;;14.04;100.00;95707.00;5053418;28;20752;-78
2022/08/12 06:22:57;;;;;;;14.13;6.07;;;;;;;13.97;100.00;95704.72;5048734;28;20075;-78
2022/08/12 06:25:27;;;;;;;10.88;5.20;;;;;;;13.94;100.00;95707.94;5058657;28;20041;-78
2022/08/12 06:27:55;;;;;;;10.38;5.22;;;;;;;14.02;100.00;95703.84;5050464;28;20391;-77
2022/08/12 06:30:21;;;;;;;8.57;5.43;;;;;;;14.08;100.00;95696.63;5053929;28;20036;-78
2022/08/12 06:32:48;;;;;;;8.10;4.25;;;;;;;14.22;98.35;95694.84;5053638;28;20049;-78
2022/08/12 06:35:16;;;;;;;9.45;5.20;;;;;;;14.56;93.63;95699.09;5050629;28;20052;-78
2022/08/12 06:37:44;;;;;;;8.63;5.18;;;;;;;14.66;93.27;95695.53;5056335;28;20043;-78
2022/08/12 06:40:11;;;;;;;16.67;5.00;;;;;;;14.54;96.64;95683.50;5054706;28;20055;-78
2022/08/12 06:42:53;;;;;;;7.68;5.10;;;;;;;14.92;90.03;95693.22;5047935;28;20037;-78
2022/08/12 06:45:18;;;;;;;8.27;4.78;;;;;;;15.00;87.66;95695.19;5050885;28;20533;-78
2022/08/12 06:47:45;;;;;;;10.88;4.93;;;;;;;14.98;90.32;95697.34;5049004;28;20048;-78
2022/08/12 06:50:12;;;;;;;8.80;4.68;;;;;;;14.96;89.90;95699.50;5044725;28;20328;-75
2022/08/12 06:52:38;;;;;;;8.25;4.97;;;;;;;15.37;83.64;95698.75;5052729;28;20036;-75
2022/08/12 06:55:04;;;;;;;8.60;4.80;;;;;;;15.53;82.61;95695.78;5052209;28;20068;-76
2022/08/12 06:57:30;;;;;;;11.60;4.72;;;;;;;15.64;81.16;95697.16;5047338;28;20048;-78
2022/08/12 06:59:56;;;;;;;26.67;5.47;;;;;;;15.73;80.87;95695.38;5048591;28;20095;-77
2022/08/12 07:02:21;;;;;;;14.00;5.10;;;;;;;15.83;79.45;95693.63;5049730;28;20037;-80
2022/08/12 07:04:48;;;;;;;9.35;5.07;;;;;;;15.99;78.67;95692.22;5058063;28;20090;-76
2022/08/12 07:07:14;;;;;;;12.68;4.50;;;;;;;16.17;76.25;95690.47;5053203;28;20103;-76
2022/08/12 07:09:41;;;;;;;11.43;5.00;;;;;;;16.18;75.65;95692.06;5048016;28;20061;-76
2022/08/12 07:12:18;;;;;;;9.80;4.35;;;;;;;16.17;77.89;95702.97;5041681;28;20094;-78
2022/08/12 07:14:50;;;;;;;11.73;5.35;;;;;;;16.22;77.62;95694.88;5046713;28;20041;-77
2022/08/12 07:17:15;;;;;;;12.85;4.88;;;;;;;16.50;74.90;95695.56;5058433;28;20066;-77
2022/08/12 07:19:42;;;;;;;8.23;4.68;;;;;;;16.49;76.38;95688.66;5049985;28;20041;-77
2022/08/12 07:22:12;;;;;;;10.52;4.50;;;;;;;16.55;78.22;95692.00;5048506;28;20045;-77
2022/08/12 07:24:37;;;;;;;7.80;4.40;;;;;;;16.43;76.35;95696.00;5047455;28;20036;-76
2022/08/12 07:27:03;;;;;;;11.82;4.78;;;;;;;16.45;76.56;95683.19;5052705;28;20106;-77
2022/08/12 07:29:28;;;;;;;12.10;4.72;;;;;;;16.79;73.14;95692.47;5043631;28;20419;-76
2022/08/12 07:31:58;;;;;;;13.23;4.80;;;;;;;16.95;75.59;95700.06;5048751;28;20052;-77
2022/08/12 07:34:25;;;;;;;11.88;4.97;;;;;;;17.04;72.95;95697.44;5046639;28;20051;-77
2022/08/12 07:36:51;;;;;;;10.98;4.57;;;;;;;17.24;71.45;95698.78;5045055;28;20064;-77
2022/08/12 07:39:16;;;;;;;9.38;4.38;;;;;;;17.22;71.31;95703.63;5048651;28;20483;-77
2022/08/12 07:41:42;;;;;;;6.95;4.40;;;;;;;17.34;70.58;95700.38;5055691;28;20041;-75
2022/08/12 07:44:07;;;;;;;13.73;5.00;;;;;;;17.33;70.57;95699.63;5046630;28;20100;-75
2022/08/12 07:46:40;;;;;;;8.00;4.10;;;;;;;17.44;70.04;95695.59;5049752;28;20041;-75
2022/08/12 07:49:12;;;;;;;10.02;4.18;;;;;;;17.42;70.99;95696.97;5054975;28;20064;-75
2022/08/12 07:51:39;;;;;;;7.18;4.00;;;;;;;17.69;68.51;95701.28;5044688;28;20041;-76
2022/08/12 07:54:09;;;;;;;8.15;4.30;;;;;;;17.92;67.65;95699.31;5052706;28;20037;-76
2022/08/12 07:56:37;;;;;;;7.15;4.07;;;;;;;17.90;67.46;95703.34;5045942;28;20410;-77
2022/08/12 07:59:03;;;;;;;8.75;4.30;;;;;;;17.79;68.22;95700.97;5040628;28;20414;-76
2022/08/12 08:01:31;;;;;;;6.88;3.85;;;;;;;17.73;68.36;95696.91;5047300;28;20028;-76
2022/08/12 08:06:42;;;;;;;;;;;;;;;18.20;66.59;95699.00;5045834;28;20449;-77
2022/08/12 08:09:10;;;;;;;9.57;4.50;;;;;;;18.39;67.53;95701.38;5047930;28;19924;-76
2022/08/12 08:14:24;;;;;;;8.75;3.95;;;;;;;18.40;64.99;95700.25;5058830;28;20037;-76
2022/08/12 08:16:49;;;;;;;11.48;4.50;;;;;;;18.46;65.44;95699.03;5056383;28;20045;-76
2022/08/12 08:19:18;;;;;;;8.50;4.25;;;;;;;18.48;64.69;95699.47;5055996;28;20130;-76
2022/08/12 08:21:44;;;;;;;6.28;4.07;;;;;;;18.64;65.43;95696.31;5051382;28;20067;-77
2022/08/12 08:24:15;;;;;;;7.72;3.88;;;;;;;18.75;65.79;95699.44;5052443;28;20531;-76
2022/08/12 08:26:49;;;;;;;8.73;3.95;;;;;;;18.88;64.93;95703.84;5058827;28;20052;-75
2022/08/12 08:29:17;;;;;;;7.47;4.38;;;;;;;18.83;66.23;95694.09;5047189;28;20041;-76
2022/08/12 08:31:45;;;;;;;8.32;4.15;;;;;;;18.89;62.79;95696.59;5054157;28;20052;-76
2022/08/12 08:34:12;;;;;;;8.20;3.85;;;;;;;18.85;62.06;95694.56;5052273;28;20040;-75
2022/08/12 08:36:39;;;;;;;10.45;3.97;;;;;;;18.89;62.45;95697.38;5054694;28;20039;-75
2022/08/12 08:39:08;;;;;;;8.70;3.75;;;;;;;18.99;62.03;95701.59;5050704;28;20044;-76
2022/08/12 08:44:21;;;;;;;6.13;3.67;;;;;;;19.07;62.98;95692.78;5044176;28;20068;-76
2022/08/12 08:46:48;;;;;;;5.97;3.38;;;;;;;19.33;61.61;95694.59;5050528;28;20040;-77
2022/08/12 08:49:15;;;;;;;7.50;3.75;;;;;;;19.32;60.37;95687.66;5054373;28;20045;-78
2022/08/12 08:51:43;;;;;;;10.15;4.00;;;;;;;19.40;59.75;95684.19;5054689;28;20033;-77
2022/08/12 08:54:11;;;;;;;10.48;3.50;;;;;;;19.48;60.34;95680.69;5054655;28;20513;-77
2022/08/12 08:56:45;;;;;;;6.45;3.20;;;;;;;19.63;57.84;95690.03;5053763;28;20643;-77
2022/08/12 08:59:12;;;;;;;8.65;3.38;;;;;;;19.78;57.44;95693.25;5044140;28;20037;-76
2022/08/12 09:01:39;;;;;;;7.70;3.05;;;;;;;19.95;58.47;95695.06;5040861;28;20037;-78
2022/08/12 09:04:06;;;;;;;6.57;3.30;;;;;;;19.99;57.16;95687.97;5055991;28;20415;-75
2022/08/12 09:06:31;;;;;;;5.75;3.20;;;;;;;20.05;56.45;95681.31;5061085;28;20047;-75
2022/08/12 09:08:57;;;;;;;5.55;3.20;;;;;;;20.27;55.80;95692.75;5050041;28;20045;-75
2022/08/12 09:14:08;;;;;;;7.22;3.00;;;;;;;20.10;54.17;95705.16;5056712;28;20056;-75
2022/08/12 09:16:38;;;;;;;4.30;2.70;;;;;;;20.28;55.17;95700.44;5053892;28;20461;-76
2022/08/12 09:19:04;;;;;;;5.53;2.88;;;;;;;20.46;55.18;95700.31;5051412;28;20637;-75
2022/08/12 09:21:31;;;;;;;8.80;3.10;;;;;;;20.69;54.26;95698.88;5052748;28;20040;-75
2022/08/12 09:23:59;;;;;;;8.40;3.00;;;;;;;20.83;53.55;95687.88;5055929;28;20060;-75
2022/08/12 09:26:26;;;;;;;10.65;3.45;;;;;;;20.63;51.79;95699.38;5062556;28;20097;-75
2022/08/12 09:28:52;;;;;;;8.18;3.10;;;;;;;20.44;51.62;95687.25;5051252;28;20052;-75
2022/08/12 09:31:17;;;;;;;6.55;3.17;;;;;;;20.55;52.35;95691.09;5059093;28;20641;-75
2022/08/12 09:33:43;;;;;;;6.60;2.67;;;;;;;20.66;52.43;95701.38;5054468;28;20040;-75
2022/08/12 09:36:08;;;;;;;11.75;3.00;;;;;;;20.74;52.38;95689.84;5055513;28;20119;-75
2022/08/12 09:38:33;;;;;;;6.13;2.88;;;;;;;20.93;52.16;95686.66;5048489;28;20091;-75
2022/08/12 09:40:59;;;;;;;5.88;2.80;;;;;;;20.84;51.79;95689.44;5049484;28;20068;-75
2022/08/12 09:46:14;;;;;;;7.03;2.78;;;;;;;20.88;53.89;95689.56;5056667;28;20052;-75
2022/08/12 09:48:39;;;;;;;10.13;3.20;;;;;;;21.10;52.68;95685.69;5056290;28;20633;-75
2022/08/12 09:51:08;;;;;;;15.95;3.17;;;;;;;20.96;52.87;95679.88;5051607;28;20044;-75
2022/08/12 09:53:33;;;;;;;14.07;3.10;;;;;;;20.99;52.72;95679.19;5053501;28;20032;-75
2022/08/12 09:56:01;;;;;;;10.65;2.95;;;;;;;21.07;52.98;95683.69;5056752;28;20728;-75
2022/08/12 09:58:28;;;;;;;13.07;3.40;;;;;;;21.18;52.30;95682.13;5051317;28;20041;-75
2022/08/12 10:01:03;;;;;;;17.67;3.45;;;;;;;21.19;51.73;95689.06;5047595;28;20443;-75
2022/08/12 10:03:33;;;;;;;14.82;3.30;;;;;;;21.04;51.76;95679.00;5056632;28;20055;-76
2022/08/12 10:06:00;;;;;;;17.75;3.17;;;;;;;21.18;52.35;95676.00;5050283;28;20055;-76
2022/08/12 10:08:30;;;;;;;9.90;3.08;;;;;;;21.40;51.64;95688.16;5057153;28;20099;-75
2022/08/12 10:13:42;;;;;;;5.03;3.00;;;;;;;21.35;51.23;95691.06;5046343;28;20422;-75
2022/08/12 10:16:17;;;;;;;6.03;3.10;;;;;;;21.25;52.54;95687.72;5047136;28;20041;-75
2022/08/12 10:18:55;;;;;;;6.97;2.88;;;;;;;21.37;51.41;95684.25;5046906;28;20068;-81
2022/08/12 10:21:35;;;;;;;6.07;2.70;;;;;;;21.63;50.64;95686.63;5042997;28;20110;-85
2022/08/12 10:24:07;;;;;;;6.07;2.90;;;;;;;21.72;51.19;95683.03;5050882;28;20047;-80
2022/08/12 10:32:03;;;;;;;4.50;2.67;;;;;;;21.68;49.48;95687.50;5046528;28;20037;-76
2022/08/12 10:34:29;;;;;;;5.97;2.80;;;;;;;22.23;49.93;95685.28;5055496;28;20514;-76
2022/08/12 10:36:59;;;;;;;6.40;2.75;;;;;;;22.29;47.34;95679.34;5061903;28;20058;-77
2022/08/12 10:39:36;;;;;;;5.57;2.70;;;;;;;22.58;49.62;95680.13;5047454;28;20091;-76
2022/08/12 10:44:49;;;;;;;4.63;2.70;;;;;;;23.30;45.43;95676.63;5046939;28;20036;-76
2022/08/12 10:47:19;;;;;;;5.22;2.50;;;;;;;24.00;44.49;95675.09;5052328;28;20093;-74
2022/08/12 10:49:46;;;;;;;5.25;2.58;;;;;;;24.70;43.45;95684.19;5040734;28;20424;-75
2022/08/12 10:52:12;;;;;;;3.10;2.30;;;;;;;24.72;43.45;95681.94;5056318;28;20040;-74
2022/08/12 10:54:39;;;;;;;7.15;2.72;;;;;;;24.83;42.66;95670.59;5040539;28;20414;-75
2022/08/12 10:57:04;;;;;;;5.55;2.78;;;;;;;25.56;42.37;95665.25;5052654;28;20111;-79
2022/08/12 10:59:30;;;;;;;4.65;2.70;;;;;;;25.45;40.94;95661.59;5050117;28;20457;-76
2022/08/12 11:01:57;;;;;;;8.48;2.83;;;;;;;25.24;41.93;95668.16;5054093;28;20044;-76
2022/08/12 11:04:29;;;;;;;7.43;2.88;;;;;;;24.82;41.29;95669.00;5057184;28;20029;-76
2022/08/12 11:06:56;;;;;;;7.38;2.83;;;;;;;25.17;40.75;95660.78;5046256;28;20052;-76
2022/08/12 11:09:36;;;;;;;7.13;2.55;;;;;;;25.94;38.83;95644.56;5055305;28;20037;-76
2022/08/12 11:12:06;;;;;;;6.10;2.53;;;;;;;25.88;38.27;95640.66;5048933;28;20045;-77
2022/08/12 11:14:37;;;;;;;4.35;2.33;;;;;;;26.01;38.09;95650.09;5052493;28;20037;-77
2022/08/12 11:17:06;;;;;;;5.18;2.50;;;;;;;25.23;37.94;95628.94;5059474;28;20505;-78
2022/08/12 11:19:34;;;;;;;2.67;2.22;;;;;;;26.22;37.83;95627.19;5045217;28;20156;-78
2022/08/12 11:22:00;;;;;;;3.63;2.28;;;;;;;25.76;36.88;95631.63;5052768;28;20476;-76
2022/08/12 11:24:26;;;;;;;7.47;2.47;;;;;;;27.19;36.29;95622.00;5050572;28;20064;-76
2022/08/12 11:26:53;;;;;;;3.92;2.40;;;;;;;27.58;35.48;95632.31;5056666;28;20110;-77
2022/08/12 11:29:21;;;;;;;3.38;2.15;;;;;;;26.52;34.33;95629.06;5055127;28;20144;-76
2022/08/12 11:31:47;;;;;;;4.43;2.40;;;;;;;26.54;35.50;95626.78;5056793;28;20041;-76
2022/08/12 11:34:13;;;;;;;2.95;2.00;;;;;;;26.99;35.32;95630.31;5056457;28;20098;-76
2022/08/12 11:36:47;;;;;;;3.83;2.47;;;;;;;26.48;35.14;95620.16;5054686;28;20545;-76
2022/08/12 11:39:13;;;;;;;5.85;2.63;;;;;;;26.74;34.64;95630.09;5050541;28;20044;-75
2022/08/12 11:41:39;;;;;;;4.22;2.17;;;;;;;27.28;35.43;95615.13;5052116;28;20064;-75
2022/08/12 11:44:05;;;;;;;5.30;2.53;;;;;;;27.52;35.31;95618.38;5059421;28;20421;-75
2022/08/12 11:46:34;;;;;;;7.13;2.88;;;;;;;27.53;34.93;95611.03;5057136;28;20048;-75
2022/08/12 11:48:59;;;;;;;8.35;2.42;;;;;;;28.05;34.85;95610.94;5062482;28;20495;-76
2022/08/12 11:51:25;;;;;;;5.43;2.90;;;;;;;27.25;35.27;95615.06;5051099;28;20048;-76
2022/08/12 11:53:50;;;;;;;4.40;2.67;;;;;;;28.07;34.81;95609.41;5057579;28;20045;-76
2022/08/12 11:56:16;;;;;;;4.57;2.70;;;;;;;28.26;33.36;95604.81;5062611;28;20032;-75
2022/08/12 11:58:41;;;;;;;6.40;2.42;;;;;;;28.14;33.51;95604.03;5059041;28;20041;-76
2022/08/12 12:01:06;;;;;;;9.68;2.65;;;;;;;26.63;35.35;95597.56;5061502;28;20064;-78
2022/08/12 12:03:32;;;;;;;4.03;2.50;;;;;;;26.54;35.41;95605.22;5058478;28;20041;-75
2022/08/12 12:05:57;;;;;;;11.32;2.80;;;;;;;25.82;36.59;95601.69;5052482;28;20399;-77
2022/08/12 12:08:25;;;;;;;4.88;2.50;;;;;;;27.15;35.73;95605.75;5056648;28;20386;-76
2022/08/12 12:10:52;;;;;;;5.03;2.50;;;;;;;27.59;34.19;95593.31;5051493;28;20040;-75
2022/08/12 12:13:18;;;;;;;5.72;2.53;;;;;;;26.48;35.16;95595.88;5052563;28;20051;-76
2022/08/12 12:15:45;;;;;;;4.93;2.47;;;;;;;25.90;35.66;95595.22;5058054;28;20446;-76
2022/08/12 12:18:23;;;;;;;5.82;2.50;;;;;;;25.39;36.91;95599.94;5056934;28;20092;-76
2022/08/12 12:20:51;;;;;;;5.10;2.40;;;;;;;24.79;38.45;95594.38;5053634;28;20052;-76
2022/08/12 12:23:17;;;;;;;5.10;2.30;;;;;;;25.73;37.28;95591.94;5052364;28;20041;-76
2022/08/12 12:25:43;;;;;;;3.30;2.30;;;;;;;26.39;36.62;95583.47;5058763;28;20041;-76
2022/08/12 12:28:08;;;;;;;3.85;2.10;;;;;;;26.51;34.29;95584.38;5058971;28;20044;-76
2022/08/12 12:30:34;;;;;;;4.20;2.20;;;;;;;26.31;34.47;95587.25;5044746;28;20045;-76
2022/08/12 12:33:00;;;;;;;5.28;2.30;;;;;;;26.29;33.06;95578.72;5054863;28;20068;-77
2022/08/12 12:35:25;;;;;;;4.35;2.30;;;;;;;26.74;33.76;95579.59;5056399;28;20058;-76
2022/08/12 12:37:51;;;;;;;4.78;2.30;;;;;;;28.39;32.60;95580.88;5059985;28;20041;-76
2022/08/12 12:40:16;;;;;;;3.25;2.15;;;;;;;28.70;30.56;95568.59;5055678;28;20043;-76
2022/08/12 12:42:42;;;;;;;3.53;2.28;;;;;;;28.71;30.41;95567.44;5055194;28;20498;-76
2022/08/12 12:45:08;;;;;;;2.97;2.30;;;;;;;28.44;30.97;95562.34;5056929;28;20060;-76
2022/08/12 12:47:33;;;;;;;4.78;2.25;;;;;;;27.57;32.76;95560.47;5050369;28;20056;-76
2022/08/12 12:49:59;;;;;;;5.03;2.20;;;;;;;28.16;32.42;95569.25;5048318;28;20041;-76
2022/08/12 12:52:24;;;;;;;4.78;2.50;;;;;;;28.66;31.85;95562.38;5056528;28;20033;-76
2022/08/12 12:54:54;;;;;;;3.00;2.13;;;;;;;28.95;30.20;95546.94;5049663;28;20139;-76
2022/08/12 12:57:21;;;;;;;5.25;2.10;;;;;;;29.02;29.28;95562.38;5053120;28;20053;-76
2022/08/12 13:00:13;;;;;;;3.13;2.00;;;;;;;29.07;28.98;95548.47;5048617;28;20033;-76
2022/08/12 13:02:32;;;;;;;16.63;2.25;;;;;;;27.83;30.36;95554.06;5053536;28;20041;-76
2022/08/12 13:04:58;;;;;;;4.22;2.15;;;;;;;28.08;30.58;95556.84;5054467;28;20102;-76
2022/08/12 13:07:25;;;;;;;5.03;2.30;;;;;;;27.62;31.57;95552.03;5054091;28;20041;-76
2022/08/12 13:09:51;;;;;;;4.07;2.00;;;;;;;27.61;32.29;95551.25;5050686;28;20458;-78
2022/08/12 13:12:16;;;;;;;2.83;2.30;;;;;;;27.19;31.90;95551.75;5054909;28;20036;-77
2022/08/12 13:14:42;;;;;;;4.70;2.30;;;;;;;26.43;34.39;95557.31;5054861;28;20070;-76
2022/08/12 13:17:11;;;;;;;4.65;2.00;;;;;;;26.00;34.03;95558.75;5051453;28;20138;-76
2022/08/12 13:19:37;;;;;;;2.75;1.90;;;;;;;25.91;34.33;95564.44;5050244;28;20037;-76
2022/08/12 13:22:23;;;;;;;6.38;2.00;;;;;;;25.64;33.35;95545.63;5042494;28;20418;-76
2022/08/12 13:24:53;;;;;;;2.90;1.90;;;;;;;24.90;35.70;95557.66;5048536;28;20049;-76